sensor_id;sensor_type;location;lat;lon;timestamp;temperature;humidity
17178;DHT22;8704;52.006;4.374;2024-01-25T00:01:51;9.00;1.00
17178;DHT22;8704;52.006;4.374;2024-01-25T00:04:21;8.90;1.00
17178;DHT22;8704;52.006;4.374;2024-01-25T00:06:49;8.10;1.00
17178;DHT22;8704;52.006;4.374;2024-01-25T00:09:18;8.10;1.00
17178;DHT22;8704;52.006;4.374;2024-01-25T00:11:46;8.00;1.00
17178;DHT22;8704;52.006;4.374;2024-01-25T00:14:15;8.00;1.00
17178;DHT22;8704;52.006;4.374;2024-01-25T00:16:43;8.10;1.00
17178;DHT22;8704;52.006;4.374;2024-01-25T00:19:11;8.00;1.00
17178;DHT22;8704;52.006;4.374;2024-01-25T00:21:42;8.00;1.00
17178;DHT22;8704;52.006;4.374;2024-01-25T00:24:12;8.00;1.00
17178;DHT22;8704;52.006;4.374;2024-01-25T00:26:40;8.10;1.00
17178;DHT22;8704;52.006;4.374;2024-01-25T00:29:08;8.00;1.00
17178;DHT22;8704;52.006;4.374;2024-01-25T00:31:38;7.90;1.00
17178;DHT22;8704;52.006;4.374;2024-01-25T00:34:06;7.90;1.00
17178;DHT22;8704;52.006;4.374;2024-01-25T00:36:35;7.90;1.00
17178;DHT22;8704;52.006;4.374;2024-01-25T00:39:04;7.80;1.00
17178;DHT22;8704;52.006;4.374;2024-01-25T00:41:33;7.80;1.00
17178;DHT22;8704;52.006;4.374;2024-01-25T00:44:01;7.80;1.00
17178;DHT22;8704;52.006;4.374;2024-01-25T00:46:30;7.80;1.00
17178;DHT22;8704;52.006;4.374;2024-01-25T00:49:00;7.80;1.00
17178;DHT22;8704;52.006;4.374;2024-01-25T00:51:29;7.70;1.00
17178;DHT22;8704;52.006;4.374;2024-01-25T00:53:57;7.70;1.00
17178;DHT22;8704;52.006;4.374;2024-01-25T00:56:26;7.70;1.00
17178;DHT22;8704;52.006;4.374;2024-01-25T00:58:55;7.70;1.00
17178;DHT22;8704;52.006;4.374;2024-01-25T01:01:24;7.70;1.00
17178;DHT22;8704;52.006;4.374;2024-01-25T01:03:55;8.10;1.00
17178;DHT22;8704;52.006;4.374;2024-01-25T01:06:25;7.70;1.00
17178;DHT22;8704;52.006;4.374;2024-01-25T01:08:54;7.70;1.00
17178;DHT22;8704;52.006;4.374;2024-01-25T01:11:23;7.70;19.80
17178;DHT22;8704;52.006;4.374;2024-01-25T01:13:51;7.60;21.80
17178;DHT22;8704;52.006;4.374;2024-01-25T01:16:19;7.60;33.80
17178;DHT22;8704;52.006;4.374;2024-01-25T01:18:47;7.50;45.20
17178;DHT22;8704;52.006;4.374;2024-01-25T01:21:16;8.50;78.80
17178;DHT22;8704;52.006;4.374;2024-01-25T01:23:45;8.20;92.20
17178;DHT22;8704;52.006;4.374;2024-01-25T01:26:13;7.50;99.90
17178;DHT22;8704;52.006;4.374;2024-01-25T01:28:41;7.50;99.90
17178;DHT22;8704;52.006;4.374;2024-01-25T01:31:10;7.40;99.90
17178;DHT22;8704;52.006;4.374;2024-01-25T01:33:38;7.90;99.90
17178;DHT22;8704;52.006;4.374;2024-01-25T01:36:07;7.60;99.90
17178;DHT22;8704;52.006;4.374;2024-01-25T01:38:35;7.50;99.90
17178;DHT22;8704;52.006;4.374;2024-01-25T01:41:04;7.50;99.90
17178;DHT22;8704;52.006;4.374;2024-01-25T01:43:32;7.60;99.90
17178;DHT22;8704;52.006;4.374;2024-01-25T01:46:04;7.80;99.90
17178;DHT22;8704;52.006;4.374;2024-01-25T01:48:34;7.40;99.90
17178;DHT22;8704;52.006;4.374;2024-01-25T01:51:03;7.40;99.90
17178;DHT22;8704;52.006;4.374;2024-01-25T01:53:32;7.40;99.90
17178;DHT22;8704;52.006;4.374;2024-01-25T01:56:01;7.40;99.90
17178;DHT22;8704;52.006;4.374;2024-01-25T01:58:31;7.70;99.90
17178;DHT22;8704;52.006;4.374;2024-01-25T02:00:59;7.40;99.90
17178;DHT22;8704;52.006;4.374;2024-01-25T02:03:27;7.30;99.90
17178;DHT22;8704;52.006;4.374;2024-01-25T02:05:55;7.60;99.90
17178;DHT22;8704;52.006;4.374;2024-01-25T02:08:29;7.70;99.90
17178;DHT22;8704;52.006;4.374;2024-01-25T02:10:58;7.30;99.90
17178;DHT22;8704;52.006;4.374;2024-01-25T02:13:27;7.30;99.90
17178;DHT22;8704;52.006;4.374;2024-01-25T02:15:56;7.60;99.90
17178;DHT22;8704;52.006;4.374;2024-01-25T02:18:25;7.20;1.00
17178;DHT22;8704;52.006;4.374;2024-01-25T02:20:53;7.90;1.00
17178;DHT22;8704;52.006;4.374;2024-01-25T02:23:22;7.20;1.00
17178;DHT22;8704;52.006;4.374;2024-01-25T02:25:51;7.30;1.00
17178;DHT22;8704;52.006;4.374;2024-01-25T02:28:19;7.00;1.00
17178;DHT22;8704;52.006;4.374;2024-01-25T02:30:47;7.00;1.00
17178;DHT22;8704;52.006;4.374;2024-01-25T02:33:15;6.90;1.00
17178;DHT22;8704;52.006;4.374;2024-01-25T02:35:44;7.60;1.00
17178;DHT22;8704;52.006;4.374;2024-01-25T02:38:12;7.20;1.00
17178;DHT22;8704;52.006;4.374;2024-01-25T02:40:41;6.90;1.00
17178;DHT22;8704;52.006;4.374;2024-01-25T02:43:09;7.00;1.00
17178;DHT22;8704;52.006;4.374;2024-01-25T02:45:38;6.60;1.00
17178;DHT22;8704;52.006;4.374;2024-01-25T02:48:06;6.80;1.00
17178;DHT22;8704;52.006;4.374;2024-01-25T02:50:34;6.60;1.00
17178;DHT22;8704;52.006;4.374;2024-01-25T02:53:03;6.50;1.00
17178;DHT22;8704;52.006;4.374;2024-01-25T02:55:31;6.40;99.90
17178;DHT22;8704;52.006;4.374;2024-01-25T02:58:00;6.50;99.90
17178;DHT22;8704;52.006;4.374;2024-01-25T03:00:28;6.50;99.90
17178;DHT22;8704;52.006;4.374;2024-01-25T03:02:57;6.40;99.90
17178;DHT22;8704;52.006;4.374;2024-01-25T03:05:25;6.50;99.90
17178;DHT22;8704;52.006;4.374;2024-01-25T03:07:53;7.00;99.90
17178;DHT22;8704;52.006;4.374;2024-01-25T03:10:23;6.10;1.00
17178;DHT22;8704;52.006;4.374;2024-01-25T03:12:51;6.10;1.00
17178;DHT22;8704;52.006;4.374;2024-01-25T03:15:20;6.00;1.00
17178;DHT22;8704;52.006;4.374;2024-01-25T03:17:48;6.50;1.00
17178;DHT22;8704;52.006;4.374;2024-01-25T03:20:17;6.10;1.00
17178;DHT22;8704;52.006;4.374;2024-01-25T03:22:45;5.80;99.90
17178;DHT22;8704;52.006;4.374;2024-01-25T03:25:13;5.80;99.90
17178;DHT22;8704;52.006;4.374;2024-01-25T03:27:42;5.80;99.90
17178;DHT22;8704;52.006;4.374;2024-01-25T03:30:11;6.30;99.90
17178;DHT22;8704;52.006;4.374;2024-01-25T03:32:40;5.70;99.90
17178;DHT22;8704;52.006;4.374;2024-01-25T03:35:08;5.90;99.90
17178;DHT22;8704;52.006;4.374;2024-01-25T03:37:37;5.60;1.00
17178;DHT22;8704;52.006;4.374;2024-01-25T03:40:06;5.90;1.00
17178;DHT22;8704;52.006;4.374;2024-01-25T03:42:35;5.50;1.00
17178;DHT22;8704;52.006;4.374;2024-01-25T03:45:03;5.40;1.00
17178;DHT22;8704;52.006;4.374;2024-01-25T03:47:31;5.40;1.00
17178;DHT22;8704;52.006;4.374;2024-01-25T03:50:01;5.30;1.00
17178;DHT22;8704;52.006;4.374;2024-01-25T03:52:30;5.30;1.00
17178;DHT22;8704;52.006;4.374;2024-01-25T03:54:58;5.40;1.00
17178;DHT22;8704;52.006;4.374;2024-01-25T03:57:26;5.20;18.40
17178;DHT22;8704;52.006;4.374;2024-01-25T03:59:54;5.20;99.90
17178;DHT22;8704;52.006;4.374;2024-01-25T04:02:22;6.00;99.90
17178;DHT22;8704;52.006;4.374;2024-01-25T04:04:51;5.10;99.90
17178;DHT22;8704;52.006;4.374;2024-01-25T04:07:20;5.10;1.00
17178;DHT22;8704;52.006;4.374;2024-01-25T04:09:48;5.00;1.00
17178;DHT22;8704;52.006;4.374;2024-01-25T04:12:17;5.30;1.00
17178;DHT22;8704;52.006;4.374;2024-01-25T04:14:45;4.90;1.00
17178;DHT22;8704;52.006;4.374;2024-01-25T04:17:13;4.90;1.00
17178;DHT22;8704;52.006;4.374;2024-01-25T04:19:41;4.90;1.00
17178;DHT22;8704;52.006;4.374;2024-01-25T04:22:09;4.80;1.00
17178;DHT22;8704;52.006;4.374;2024-01-25T04:24:39;4.80;1.00
17178;DHT22;8704;52.006;4.374;2024-01-25T04:27:07;4.80;99.90
17178;DHT22;8704;52.006;4.374;2024-01-25T04:29:38;4.80;99.90
17178;DHT22;8704;52.006;4.374;2024-01-25T04:32:06;5.80;99.90
17178;DHT22;8704;52.006;4.374;2024-01-25T04:34:35;4.90;1.00
17178;DHT22;8704;52.006;4.374;2024-01-25T04:37:04;4.60;1.00
17178;DHT22;8704;52.006;4.374;2024-01-25T04:39:32;4.60;1.00
17178;DHT22;8704;52.006;4.374;2024-01-25T04:42:02;4.60;1.00
17178;DHT22;8704;52.006;4.374;2024-01-25T04:44:30;4.60;1.00
17178;DHT22;8704;52.006;4.374;2024-01-25T04:46:58;4.50;99.30
17178;DHT22;8704;52.006;4.374;2024-01-25T04:49:26;4.50;45.70
17178;DHT22;8704;52.006;4.374;2024-01-25T04:51:54;4.50;99.90
17178;DHT22;8704;52.006;4.374;2024-01-25T04:54:22;4.40;99.90
17178;DHT22;8704;52.006;4.374;2024-01-25T04:56:50;4.80;99.90
17178;DHT22;8704;52.006;4.374;2024-01-25T04:59:20;4.40;1.00
17178;DHT22;8704;52.006;4.374;2024-01-25T05:01:48;5.40;1.00
17178;DHT22;8704;52.006;4.374;2024-01-25T05:04:16;4.40;1.00
17178;DHT22;8704;52.006;4.374;2024-01-25T05:06:44;4.30;1.00
17178;DHT22;8704;52.006;4.374;2024-01-25T05:09:12;4.50;9.60
17178;DHT22;8704;52.006;4.374;2024-01-25T05:11:41;4.30;99.90
17178;DHT22;8704;52.006;4.374;2024-01-25T05:14:09;5.20;99.90
17178;DHT22;8704;52.006;4.374;2024-01-25T05:16:38;4.20;1.00
17178;DHT22;8704;52.006;4.374;2024-01-25T05:19:06;4.20;1.00
17178;DHT22;8704;52.006;4.374;2024-01-25T05:21:35;4.20;1.00
17178;DHT22;8704;52.006;4.374;2024-01-25T05:24:03;4.80;1.00
17178;DHT22;8704;52.006;4.374;2024-01-25T05:26:32;4.10;1.00
17178;DHT22;8704;52.006;4.374;2024-01-25T05:29:00;4.10;1.00
17178;DHT22;8704;52.006;4.374;2024-01-25T05:31:28;4.10;99.90
17178;DHT22;8704;52.006;4.374;2024-01-25T05:33:57;4.00;99.90
17178;DHT22;8704;52.006;4.374;2024-01-25T05:36:26;4.00;99.90
17178;DHT22;8704;52.006;4.374;2024-01-25T05:38:54;4.00;99.90
17178;DHT22;8704;52.006;4.374;2024-01-25T05:41:22;4.00;99.90
17178;DHT22;8704;52.006;4.374;2024-01-25T05:43:50;4.00;1.00
17178;DHT22;8704;52.006;4.374;2024-01-25T05:46:18;3.90;99.90
17178;DHT22;8704;52.006;4.374;2024-01-25T05:48:46;4.50;99.90
17178;DHT22;8704;52.006;4.374;2024-01-25T05:51:17;4.40;99.90
17178;DHT22;8704;52.006;4.374;2024-01-25T05:53:45;3.80;99.90
17178;DHT22;8704;52.006;4.374;2024-01-25T05:56:13;3.70;99.90
17178;DHT22;8704;52.006;4.374;2024-01-25T05:58:41;3.80;1.00
17178;DHT22;8704;52.006;4.374;2024-01-25T06:01:10;3.70;1.00
17178;DHT22;8704;52.006;4.374;2024-01-25T06:03:37;3.80;1.00
17178;DHT22;8704;52.006;4.374;2024-01-25T06:06:05;3.80;1.00
17178;DHT22;8704;52.006;4.374;2024-01-25T06:08:36;3.70;1.00
17178;DHT22;8704;52.006;4.374;2024-01-25T06:11:05;3.70;1.00
17178;DHT22;8704;52.006;4.374;2024-01-25T06:13:33;4.20;1.00
17178;DHT22;8704;52.006;4.374;2024-01-25T06:16:01;3.60;1.00
17178;DHT22;8704;52.006;4.374;2024-01-25T06:18:29;3.80;1.00
17178;DHT22;8704;52.006;4.374;2024-01-25T06:20:57;3.60;1.00
17178;DHT22;8704;52.006;4.374;2024-01-25T06:23:25;3.60;1.00
17178;DHT22;8704;52.006;4.374;2024-01-25T06:25:55;3.60;1.00
17178;DHT22;8704;52.006;4.374;2024-01-25T06:28:23;3.50;1.00
17178;DHT22;8704;52.006;4.374;2024-01-25T06:30:52;4.10;1.00
17178;DHT22;8704;52.006;4.374;2024-01-25T06:33:20;3.50;44.50
17178;DHT22;8704;52.006;4.374;2024-01-25T06:35:49;3.50;96.80
17178;DHT22;8704;52.006;4.374;2024-01-25T06:38:17;3.40;99.90
17178;DHT22;8704;52.006;4.374;2024-01-25T06:40:45;3.40;99.90
17178;DHT22;8704;52.006;4.374;2024-01-25T06:43:14;3.40;99.90
17178;DHT22;8704;52.006;4.374;2024-01-25T06:45:43;3.40;99.90
17178;DHT22;8704;52.006;4.374;2024-01-25T06:48:11;3.40;99.90
17178;DHT22;8704;52.006;4.374;2024-01-25T06:50:39;3.40;99.90
17178;DHT22;8704;52.006;4.374;2024-01-25T06:53:07;3.40;1.00
17178;DHT22;8704;52.006;4.374;2024-01-25T06:55:35;3.30;1.00
17178;DHT22;8704;52.006;4.374;2024-01-25T06:58:03;3.40;1.00
17178;DHT22;8704;52.006;4.374;2024-01-25T07:00:33;3.40;1.00
17178;DHT22;8704;52.006;4.374;2024-01-25T07:03:02;3.30;1.00
17178;DHT22;8704;52.006;4.374;2024-01-25T07:05:31;3.40;1.00
17178;DHT22;8704;52.006;4.374;2024-01-25T07:08:00;3.50;1.00
17178;DHT22;8704;52.006;4.374;2024-01-25T07:10:28;3.40;35.70
17178;DHT22;8704;52.006;4.374;2024-01-25T07:12:56;3.40;99.90
17178;DHT22;8704;52.006;4.374;2024-01-25T07:15:25;4.00;99.90
17178;DHT22;8704;52.006;4.374;2024-01-25T07:17:55;4.40;99.90
17178;DHT22;8704;52.006;4.374;2024-01-25T07:20:23;3.50;99.90
17178;DHT22;8704;52.006;4.374;2024-01-25T07:22:51;3.50;99.90
17178;DHT22;8704;52.006;4.374;2024-01-25T07:25:19;3.40;1.00
17178;DHT22;8704;52.006;4.374;2024-01-25T07:27:48;3.40;1.00
17178;DHT22;8704;52.006;4.374;2024-01-25T07:30:17;3.40;1.00
17178;DHT22;8704;52.006;4.374;2024-01-25T07:32:45;3.50;1.00
17178;DHT22;8704;52.006;4.374;2024-01-25T07:35:14;3.50;1.00
17178;DHT22;8704;52.006;4.374;2024-01-25T07:37:43;3.50;1.00
17178;DHT22;8704;52.006;4.374;2024-01-25T07:40:12;3.40;1.00
17178;DHT22;8704;52.006;4.374;2024-01-25T07:42:40;3.50;1.00
17178;DHT22;8704;52.006;4.374;2024-01-25T07:45:09;3.50;1.00
17178;DHT22;8704;52.006;4.374;2024-01-25T07:47:37;3.50;1.00
17178;DHT22;8704;52.006;4.374;2024-01-25T07:50:06;4.40;1.00
17178;DHT22;8704;52.006;4.374;2024-01-25T07:52:36;3.50;1.00
17178;DHT22;8704;52.006;4.374;2024-01-25T07:55:05;3.50;43.60
17178;DHT22;8704;52.006;4.374;2024-01-25T07:57:33;3.70;99.90
17178;DHT22;8704;52.006;4.374;2024-01-25T08:00:02;3.70;99.90
17178;DHT22;8704;52.006;4.374;2024-01-25T08:02:31;3.60;99.90
17178;DHT22;8704;52.006;4.374;2024-01-25T08:05:00;3.70;99.90
17178;DHT22;8704;52.006;4.374;2024-01-25T08:07:28;3.70;99.90
17178;DHT22;8704;52.006;4.374;2024-01-25T08:09:58;3.70;99.90
17178;DHT22;8704;52.006;4.374;2024-01-25T08:12:26;3.80;99.90
17178;DHT22;8704;52.006;4.374;2024-01-25T08:14:54;3.80;99.90
17178;DHT22;8704;52.006;4.374;2024-01-25T08:17:22;4.80;1.00
17178;DHT22;8704;52.006;4.374;2024-01-25T08:19:50;3.90;1.00
17178;DHT22;8704;52.006;4.374;2024-01-25T08:22:19;4.20;1.00
17178;DHT22;8704;52.006;4.374;2024-01-25T08:24:49;4.60;1.00
17178;DHT22;8704;52.006;4.374;2024-01-25T08:27:19;3.90;1.00
17178;DHT22;8704;52.006;4.374;2024-01-25T08:29:47;4.80;1.00
17178;DHT22;8704;52.006;4.374;2024-01-25T08:32:15;4.20;1.00
17178;DHT22;8704;52.006;4.374;2024-01-25T08:34:43;4.00;1.00
17178;DHT22;8704;52.006;4.374;2024-01-25T08:37:11;4.10;1.00
17178;DHT22;8704;52.006;4.374;2024-01-25T08:39:40;4.60;1.00
17178;DHT22;8704;52.006;4.374;2024-01-25T08:42:10;4.10;1.00
17178;DHT22;8704;52.006;4.374;2024-01-25T08:44:42;4.10;1.00
17178;DHT22;8704;52.006;4.374;2024-01-25T08:47:17;4.10;1.00
17178;DHT22;8704;52.006;4.374;2024-01-25T08:49:45;4.10;1.00
17178;DHT22;8704;52.006;4.374;2024-01-25T08:52:13;4.20;1.00
17178;DHT22;8704;52.006;4.374;2024-01-25T08:54:42;4.20;1.00
17178;DHT22;8704;52.006;4.374;2024-01-25T08:57:10;4.20;1.00
17178;DHT22;8704;52.006;4.374;2024-01-25T08:59:38;4.20;1.00
17178;DHT22;8704;52.006;4.374;2024-01-25T09:02:08;4.40;1.00
17178;DHT22;8704;52.006;4.374;2024-01-25T09:04:37;5.40;1.00
17178;DHT22;8704;52.006;4.374;2024-01-25T09:07:07;4.40;1.00
17178;DHT22;8704;52.006;4.374;2024-01-25T09:09:35;4.50;1.00
17178;DHT22;8704;52.006;4.374;2024-01-25T09:12:05;4.60;1.00
17178;DHT22;8704;52.006;4.374;2024-01-25T09:14:35;4.60;1.00
17178;DHT22;8704;52.006;4.374;2024-01-25T09:17:03;4.70;1.00
17178;DHT22;8704;52.006;4.374;2024-01-25T09:19:33;4.70;1.00
17178;DHT22;8704;52.006;4.374;2024-01-25T09:22:02;5.20;1.00
17178;DHT22;8704;52.006;4.374;2024-01-25T09:24:31;5.50;1.00
17178;DHT22;8704;52.006;4.374;2024-01-25T09:27:03;4.90;11.10
17178;DHT22;8704;52.006;4.374;2024-01-25T09:29:31;5.00;29.30
17178;DHT22;8704;52.006;4.374;2024-01-25T09:31:59;5.00;56.20
17178;DHT22;8704;52.006;4.374;2024-01-25T09:34:27;5.10;89.60
17178;DHT22;8704;52.006;4.374;2024-01-25T09:36:59;5.60;99.90
17178;DHT22;8704;52.006;4.374;2024-01-25T09:39:27;5.60;99.90
17178;DHT22;8704;52.006;4.374;2024-01-25T09:41:55;5.20;99.90
17178;DHT22;8704;52.006;4.374;2024-01-25T09:44:24;5.40;99.90
17178;DHT22;8704;52.006;4.374;2024-01-25T09:46:52;5.30;99.90
17178;DHT22;8704;52.006;4.374;2024-01-25T09:49:20;5.40;99.90
17178;DHT22;8704;52.006;4.374;2024-01-25T09:51:51;6.40;99.90
17178;DHT22;8704;52.006;4.374;2024-01-25T09:54:21;5.50;99.90
17178;DHT22;8704;52.006;4.374;2024-01-25T09:56:50;6.40;99.90
17178;DHT22;8704;52.006;4.374;2024-01-25T09:59:19;5.60;99.90
17178;DHT22;8704;52.006;4.374;2024-01-25T10:01:48;6.00;99.90
17178;DHT22;8704;52.006;4.374;2024-01-25T10:04:17;5.60;99.90
17178;DHT22;8704;52.006;4.374;2024-01-25T10:06:49;5.70;99.90
17178;DHT22;8704;52.006;4.374;2024-01-25T10:09:17;5.70;99.90
17178;DHT22;8704;52.006;4.374;2024-01-25T10:11:46;5.80;99.90
17178;DHT22;8704;52.006;4.374;2024-01-25T10:14:16;5.80;99.90
17178;DHT22;8704;52.006;4.374;2024-01-25T10:16:45;5.80;99.90
17178;DHT22;8704;52.006;4.374;2024-01-25T10:19:13;5.90;99.90
17178;DHT22;8704;52.006;4.374;2024-01-25T10:21:43;5.90;99.90
17178;DHT22;8704;52.006;4.374;2024-01-25T10:24:11;6.10;99.90
17178;DHT22;8704;52.006;4.374;2024-01-25T10:26:41;6.00;99.90
17178;DHT22;8704;52.006;4.374;2024-01-25T10:29:10;6.00;99.90
17178;DHT22;8704;52.006;4.374;2024-01-25T10:31:39;5.20;99.90
17178;DHT22;8704;52.006;4.374;2024-01-25T10:34:11;6.50;99.90
17178;DHT22;8704;52.006;4.374;2024-01-25T10:36:41;6.60;99.90
17178;DHT22;8704;52.006;4.374;2024-01-25T10:39:11;6.60;99.90
17178;DHT22;8704;52.006;4.374;2024-01-25T10:41:42;7.40;53.80
17178;DHT22;8704;52.006;4.374;2024-01-25T10:44:13;6.30;1.00
17178;DHT22;8704;52.006;4.374;2024-01-25T10:46:42;7.10;1.00
17178;DHT22;8704;52.006;4.374;2024-01-25T10:49:10;6.70;1.00
17178;DHT22;8704;52.006;4.374;2024-01-25T10:51:40;6.80;1.00
17178;DHT22;8704;52.006;4.374;2024-01-25T10:54:08;6.90;1.00
17178;DHT22;8704;52.006;4.374;2024-01-25T10:56:38;6.70;1.00
17178;DHT22;8704;52.006;4.374;2024-01-25T10:59:08;6.50;1.00
17178;DHT22;8704;52.006;4.374;2024-01-25T11:01:43;6.60;1.00
17178;DHT22;8704;52.006;4.374;2024-01-25T11:04:16;6.60;1.00
17178;DHT22;8704;52.006;4.374;2024-01-25T11:06:47;6.80;1.00
17178;DHT22;8704;52.006;4.374;2024-01-25T11:09:17;6.60;1.00
17178;DHT22;8704;52.006;4.374;2024-01-25T11:11:47;7.50;99.90
17178;DHT22;8704;52.006;4.374;2024-01-25T11:14:15;6.80;1.00
17178;DHT22;8704;52.006;4.374;2024-01-25T11:16:46;6.80;1.00
17178;DHT22;8704;52.006;4.374;2024-01-25T11:19:19;6.90;1.00
17178;DHT22;8704;52.006;4.374;2024-01-25T11:21:48;7.00;99.90
17178;DHT22;8704;52.006;4.374;2024-01-25T11:24:19;7.00;1.00
17178;DHT22;8704;52.006;4.374;2024-01-25T11:26:48;7.00;99.90
17178;DHT22;8704;52.006;4.374;2024-01-25T11:29:18;7.10;1.00
17178;DHT22;8704;52.006;4.374;2024-01-25T11:31:51;7.20;99.90
17178;DHT22;8704;52.006;4.374;2024-01-25T11:34:19;7.10;1.00
17178;DHT22;8704;52.006;4.374;2024-01-25T11:36:49;7.40;1.00
17178;DHT22;8704;52.006;4.374;2024-01-25T11:39:17;7.90;99.90
17178;DHT22;8704;52.006;4.374;2024-01-25T11:41:46;7.30;1.00
17178;DHT22;8704;52.006;4.374;2024-01-25T11:44:15;7.30;99.90
17178;DHT22;8704;52.006;4.374;2024-01-25T11:46:43;7.70;99.90
17178;DHT22;8704;52.006;4.374;2024-01-25T11:49:13;7.70;85.90
17178;DHT22;8704;52.006;4.374;2024-01-25T11:51:41;7.50;1.00
17178;DHT22;8704;52.006;4.374;2024-01-25T11:54:10;7.80;1.00
17178;DHT22;8704;52.006;4.374;2024-01-25T11:56:39;7.70;1.00
17178;DHT22;8704;52.006;4.374;2024-01-25T11:59:10;7.70;1.00
17178;DHT22;8704;52.006;4.374;2024-01-25T12:01:39;7.80;99.90
17178;DHT22;8704;52.006;4.374;2024-01-25T12:04:09;7.80;56.00
17178;DHT22;8704;52.006;4.374;2024-01-25T12:06:38;7.80;1.00
17178;DHT22;8704;52.006;4.374;2024-01-25T12:09:08;8.00;1.00
17178;DHT22;8704;52.006;4.374;2024-01-25T12:11:38;8.00;99.90
17178;DHT22;8704;52.006;4.374;2024-01-25T12:14:07;8.00;99.90
17178;DHT22;8704;52.006;4.374;2024-01-25T12:16:35;8.10;99.90
17178;DHT22;8704;52.006;4.374;2024-01-25T12:19:05;8.00;99.90
17178;DHT22;8704;52.006;4.374;2024-01-25T12:21:34;8.10;1.00
17178;DHT22;8704;52.006;4.374;2024-01-25T12:24:06;8.10;1.00
17178;DHT22;8704;52.006;4.374;2024-01-25T12:26:35;8.10;99.90
17178;DHT22;8704;52.006;4.374;2024-01-25T12:29:04;8.20;99.90
17178;DHT22;8704;52.006;4.374;2024-01-25T12:31:32;8.20;99.90
17178;DHT22;8704;52.006;4.374;2024-01-25T12:34:00;8.30;99.90
17178;DHT22;8704;52.006;4.374;2024-01-25T12:36:29;8.60;95.40
17178;DHT22;8704;52.006;4.374;2024-01-25T12:38:57;8.40;90.10
17178;DHT22;8704;52.006;4.374;2024-01-25T12:41:30;8.50;17.90
17178;DHT22;8704;52.006;4.374;2024-01-25T12:43:58;8.50;53.00
17178;DHT22;8704;52.006;4.374;2024-01-25T12:46:27;8.50;97.10
17178;DHT22;8704;52.006;4.374;2024-01-25T12:48:58;8.60;99.90
17178;DHT22;8704;52.006;4.374;2024-01-25T12:51:26;8.70;99.90
17178;DHT22;8704;52.006;4.374;2024-01-25T12:53:54;8.60;99.90
17178;DHT22;8704;52.006;4.374;2024-01-25T12:56:22;8.70;99.90
17178;DHT22;8704;52.006;4.374;2024-01-25T12:58:52;8.70;99.90
17178;DHT22;8704;52.006;4.374;2024-01-25T13:01:20;8.80;99.90
17178;DHT22;8704;52.006;4.374;2024-01-25T13:03:49;8.80;1.00
17178;DHT22;8704;52.006;4.374;2024-01-25T13:06:18;9.70;1.00
17178;DHT22;8704;52.006;4.374;2024-01-25T13:08:46;8.90;1.00
17178;DHT22;8704;52.006;4.374;2024-01-25T13:11:15;9.00;1.00
17178;DHT22;8704;52.006;4.374;2024-01-25T13:13:43;9.00;1.00
17178;DHT22;8704;52.006;4.374;2024-01-25T13:16:13;9.80;99.90
17178;DHT22;8704;52.006;4.374;2024-01-25T13:18:41;8.90;99.90
17178;DHT22;8704;52.006;4.374;2024-01-25T13:21:09;9.50;99.90
17178;DHT22;8704;52.006;4.374;2024-01-25T13:23:37;9.00;99.90
17178;DHT22;8704;52.006;4.374;2024-01-25T13:26:06;9.00;99.90
17178;DHT22;8704;52.006;4.374;2024-01-25T13:28:34;9.10;99.90
17178;DHT22;8704;52.006;4.374;2024-01-25T13:31:02;9.20;99.90
17178;DHT22;8704;52.006;4.374;2024-01-25T13:33:32;9.10;99.90
17178;DHT22;8704;52.006;4.374;2024-01-25T13:36:00;9.20;1.00
17178;DHT22;8704;52.006;4.374;2024-01-25T13:38:28;9.20;99.90
17178;DHT22;8704;52.006;4.374;2024-01-25T13:40:56;10.00;99.90
17178;DHT22;8704;52.006;4.374;2024-01-25T13:43:24;9.10;1.00
17178;DHT22;8704;52.006;4.374;2024-01-25T13:45:53;9.10;1.00
17178;DHT22;8704;52.006;4.374;2024-01-25T13:48:22;9.10;1.00
17178;DHT22;8704;52.006;4.374;2024-01-25T13:50:51;9.10;1.00
17178;DHT22;8704;52.006;4.374;2024-01-25T13:53:19;9.20;1.00
17178;DHT22;8704;52.006;4.374;2024-01-25T13:55:47;9.20;1.00
17178;DHT22;8704;52.006;4.374;2024-01-25T13:58:16;9.50;1.00
17178;DHT22;8704;52.006;4.374;2024-01-25T14:00:46;9.20;1.00
17178;DHT22;8704;52.006;4.374;2024-01-25T14:03:15;9.20;1.00
17178;DHT22;8704;52.006;4.374;2024-01-25T14:05:44;9.20;1.00
17178;DHT22;8704;52.006;4.374;2024-01-25T14:08:13;9.20;1.00
17178;DHT22;8704;52.006;4.374;2024-01-25T14:10:42;9.30;1.00
17178;DHT22;8704;52.006;4.374;2024-01-25T14:13:10;9.30;1.00
17178;DHT22;8704;52.006;4.374;2024-01-25T14:15:38;9.60;1.00
17178;DHT22;8704;52.006;4.374;2024-01-25T14:18:06;9.30;1.00
17178;DHT22;8704;52.006;4.374;2024-01-25T14:20:35;9.60;1.00
17178;DHT22;8704;52.006;4.374;2024-01-25T14:23:04;9.30;94.90
17178;DHT22;8704;52.006;4.374;2024-01-25T14:25:34;9.60;99.90
17178;DHT22;8704;52.006;4.374;2024-01-25T14:28:02;9.30;99.90
17178;DHT22;8704;52.006;4.374;2024-01-25T14:30:30;9.20;99.90
17178;DHT22;8704;52.006;4.374;2024-01-25T14:32:58;9.50;1.00
17178;DHT22;8704;52.006;4.374;2024-01-25T14:35:27;9.80;1.00
17178;DHT22;8704;52.006;4.374;2024-01-25T14:37:56;9.20;1.00
17178;DHT22;8704;52.006;4.374;2024-01-25T14:40:24;9.80;1.00
17178;DHT22;8704;52.006;4.374;2024-01-25T14:43:14;9.10;1.00
17178;DHT22;8704;52.006;4.374;2024-01-25T14:45:43;9.20;1.00
17178;DHT22;8704;52.006;4.374;2024-01-25T14:48:11;9.40;90.10
17178;DHT22;8704;52.006;4.374;2024-01-25T14:50:39;9.10;99.90
17178;DHT22;8704;52.006;4.374;2024-01-25T14:53:07;9.00;99.90
17178;DHT22;8704;52.006;4.374;2024-01-25T14:55:35;9.00;1.00
17178;DHT22;8704;52.006;4.374;2024-01-25T14:58:03;9.00;1.00
17178;DHT22;8704;52.006;4.374;2024-01-25T15:00:35;9.30;99.90
17178;DHT22;8704;52.006;4.374;2024-01-25T15:03:04;9.00;99.90
17178;DHT22;8704;52.006;4.374;2024-01-25T15:05:33;9.00;1.00
17178;DHT22;8704;52.006;4.374;2024-01-25T15:08:03;9.00;1.00
17178;DHT22;8704;52.006;4.374;2024-01-25T15:10:31;8.90;1.00
17178;DHT22;8704;52.006;4.374;2024-01-25T15:12:59;9.10;99.90
17178;DHT22;8704;52.006;4.374;2024-01-25T15:15:27;8.90;99.90
17178;DHT22;8704;52.006;4.374;2024-01-25T15:17:57;9.70;99.90
17178;DHT22;8704;52.006;4.374;2024-01-25T15:20:25;8.90;99.90
17178;DHT22;8704;52.006;4.374;2024-01-25T15:22:54;8.90;1.00
17178;DHT22;8704;52.006;4.374;2024-01-25T15:25:24;8.90;1.00
17178;DHT22;8704;52.006;4.374;2024-01-25T15:27:53;8.90;99.90
17178;DHT22;8704;52.006;4.374;2024-01-25T15:30:21;9.00;99.90
17178;DHT22;8704;52.006;4.374;2024-01-25T15:32:49;9.60;99.90
17178;DHT22;8704;52.006;4.374;2024-01-25T15:35:19;8.90;99.90
17178;DHT22;8704;52.006;4.374;2024-01-25T15:37:47;9.60;1.00
17178;DHT22;8704;52.006;4.374;2024-01-25T15:40:17;8.90;1.00
17178;DHT22;8704;52.006;4.374;2024-01-25T15:42:46;8.90;1.00
17178;DHT22;8704;52.006;4.374;2024-01-25T15:45:19;8.90;55.30
17178;DHT22;8704;52.006;4.374;2024-01-25T15:47:47;8.90;99.90
17178;DHT22;8704;52.006;4.374;2024-01-25T15:50:16;8.90;99.90
17178;DHT22;8704;52.006;4.374;2024-01-25T15:52:47;8.90;99.90
17178;DHT22;8704;52.006;4.374;2024-01-25T15:55:15;8.90;99.90
17178;DHT22;8704;52.006;4.374;2024-01-25T15:57:44;8.80;1.00
17178;DHT22;8704;52.006;4.374;2024-01-25T16:00:13;8.90;1.00
17178;DHT22;8704;52.006;4.374;2024-01-25T16:02:46;8.90;1.00
17178;DHT22;8704;52.006;4.374;2024-01-25T16:05:14;8.90;99.90
17178;DHT22;8704;52.006;4.374;2024-01-25T16:07:42;8.90;99.90
17178;DHT22;8704;52.006;4.374;2024-01-25T16:10:17;8.90;99.90
17178;DHT22;8704;52.006;4.374;2024-01-25T16:12:47;9.00;1.00
17178;DHT22;8704;52.006;4.374;2024-01-25T16:15:17;9.00;1.00
17178;DHT22;8704;52.006;4.374;2024-01-25T16:17:46;8.90;1.00
17178;DHT22;8704;52.006;4.374;2024-01-25T16:20:14;8.90;1.00